Cleveland, Ohio
Traffic Map
Current Weather Conditions
Cleveland, Ohio
Broken Clouds
Broken Clouds
68°
Feels Like: 68°
Wind Chill: 68° Ceiling: 5000
Heat Index: 68° Visibility: 10mi
Dew Point: 58° Wind: 13mph
Humidity: 70% Direction: 20° (NNE)
Pressure: 30.05in Gusts: 0mph
Raw Report DataKBKL 020253Z 02011KT 10SM FEW027 BKN050 20/14 A3005 RMK AO2 SLP172 T02000144 53019
Traffic Incident Summary
Active as of:
Severity:
Category:
InformationThere was an issue retrieving the traffic information for this location. Please try a different location or try again shortly.
Advertisements
Track Severe Weather on mobile